sensor_id;sensor_type;location;lat;lon;timestamp;temperature;humidity
6556;DHT22;3311;48.32423000;14.29074500;2023-12-04T00:00:49;12.70;23.00
6556;DHT22;3311;48.32423000;14.29074500;2023-12-04T00:03:18;12.50;23.00
6556;DHT22;3311;48.32423000;14.29074500;2023-12-04T00:05:46;12.90;23.10
6556;DHT22;3311;48.32423000;14.29074500;2023-12-04T00:08:13;13.00;22.60
6556;DHT22;3311;48.32423000;14.29074500;2023-12-04T00:10:40;13.30;22.60
6556;DHT22;3311;48.32423000;14.29074500;2023-12-04T00:13:08;13.40;22.50
6556;DHT22;3311;48.32423000;14.29074500;2023-12-04T00:15:36;13.50;22.60
6556;DHT22;3311;48.32423000;14.29074500;2023-12-04T00:18:03;13.10;22.60
6556;DHT22;3311;48.32423000;14.29074500;2023-12-04T00:20:32;13.20;22.60
6556;DHT22;3311;48.32423000;14.29074500;2023-12-04T00:22:59;13.00;22.50
6556;DHT22;3311;48.32423000;14.29074500;2023-12-04T00:25:26;13.20;22.60
6556;DHT22;3311;48.32423000;14.29074500;2023-12-04T00:27:54;13.00;22.60
6556;DHT22;3311;48.32423000;14.29074500;2023-12-04T00:30:21;12.90;22.40
6556;DHT22;3311;48.32423000;14.29074500;2023-12-04T00:32:48;12.80;22.30
6556;DHT22;3311;48.32423000;14.29074500;2023-12-04T00:35:16;12.80;22.60
6556;DHT22;3311;48.32423000;14.29074500;2023-12-04T00:37:45;12.80;22.50
6556;DHT22;3311;48.32423000;14.29074500;2023-12-04T00:40:12;12.80;22.70
6556;DHT22;3311;48.32423000;14.29074500;2023-12-04T00:42:40;12.60;22.50
6556;DHT22;3311;48.32423000;14.29074500;2023-12-04T00:45:09;12.40;22.40
6556;DHT22;3311;48.32423000;14.29074500;2023-12-04T00:47:36;12.70;22.70
6556;DHT22;3311;48.32423000;14.29074500;2023-12-04T00:50:05;12.90;22.50
6556;DHT22;3311;48.32423000;14.29074500;2023-12-04T00:52:32;13.20;22.20
6556;DHT22;3311;48.32423000;14.29074500;2023-12-04T00:55:01;13.50;21.90
6556;DHT22;3311;48.32423000;14.29074500;2023-12-04T00:57:28;13.90;21.80
6556;DHT22;3311;48.32423000;14.29074500;2023-12-04T00:59:55;14.10;21.40
6556;DHT22;3311;48.32423000;14.29074500;2023-12-04T01:02:23;14.10;21.20
6556;DHT22;3311;48.32423000;14.29074500;2023-12-04T01:04:51;14.30;21.10
6556;DHT22;3311;48.32423000;14.29074500;2023-12-04T01:07:18;14.20;21.10
6556;DHT22;3311;48.32423000;14.29074500;2023-12-04T01:09:46;14.00;20.90
6556;DHT22;3311;48.32423000;14.29074500;2023-12-04T01:12:15;14.10;21.00
6556;DHT22;3311;48.32423000;14.29074500;2023-12-04T01:14:42;14.00;20.90
6556;DHT22;3311;48.32423000;14.29074500;2023-12-04T01:17:10;13.80;20.80
6556;DHT22;3311;48.32423000;14.29074500;2023-12-04T01:19:38;13.70;20.90
6556;DHT22;3311;48.32423000;14.29074500;2023-12-04T01:22:05;13.70;20.90
6556;DHT22;3311;48.32423000;14.29074500;2023-12-04T01:24:32;13.50;21.00
6556;DHT22;3311;48.32423000;14.29074500;2023-12-04T01:27:00;13.60;20.70
6556;DHT22;3311;48.32423000;14.29074500;2023-12-04T01:29:29;13.60;21.00
6556;DHT22;3311;48.32423000;14.29074500;2023-12-04T01:31:58;13.50;21.10
6556;DHT22;3311;48.32423000;14.29074500;2023-12-04T01:34:25;13.50;21.20
6556;DHT22;3311;48.32423000;14.29074500;2023-12-04T01:36:52;13.60;20.90
6556;DHT22;3311;48.32423000;14.29074500;2023-12-04T01:39:20;13.90;20.80
6556;DHT22;3311;48.32423000;14.29074500;2023-12-04T01:41:47;14.00;20.70
6556;DHT22;3311;48.32423000;14.29074500;2023-12-04T01:44:14;14.30;20.40
6556;DHT22;3311;48.32423000;14.29074500;2023-12-04T01:46:44;14.30;20.40
6556;DHT22;3311;48.32423000;14.29074500;2023-12-04T01:49:11;14.30;20.20
6556;DHT22;3311;48.32423000;14.29074500;2023-12-04T01:51:40;14.30;20.30
6556;DHT22;3311;48.32423000;14.29074500;2023-12-04T01:54:07;14.40;20.20
6556;DHT22;3311;48.32423000;14.29074500;2023-12-04T01:56:36;14.40;20.30
6556;DHT22;3311;48.32423000;14.29074500;2023-12-04T01:59:04;14.30;20.20
6556;DHT22;3311;48.32423000;14.29074500;2023-12-04T02:01:31;14.20;20.30
6556;DHT22;3311;48.32423000;14.29074500;2023-12-04T02:04:02;14.00;20.20
6556;DHT22;3311;48.32423000;14.29074500;2023-12-04T02:06:30;13.90;20.40
6556;DHT22;3311;48.32423000;14.29074500;2023-12-04T02:08:57;13.70;20.40
6556;DHT22;3311;48.32423000;14.29074500;2023-12-04T02:11:24;13.30;20.00
6556;DHT22;3311;48.32423000;14.29074500;2023-12-04T02:13:52;13.30;20.40
6556;DHT22;3311;48.32423000;14.29074500;2023-12-04T02:16:20;13.40;20.50
6556;DHT22;3311;48.32423000;14.29074500;2023-12-04T02:18:51;13.40;20.50
6556;DHT22;3311;48.32423000;14.29074500;2023-12-04T02:21:20;13.50;20.70
6556;DHT22;3311;48.32423000;14.29074500;2023-12-04T02:23:51;13.50;20.80
6556;DHT22;3311;48.32423000;14.29074500;2023-12-04T02:26:24;13.70;20.70
6556;DHT22;3311;48.32423000;14.29074500;2023-12-04T02:28:58;13.90;20.80
6556;DHT22;3311;48.32423000;14.29074500;2023-12-04T02:31:27;14.20;20.80
6556;DHT22;3311;48.32423000;14.29074500;2023-12-04T02:33:56;14.30;20.70
6556;DHT22;3311;48.32423000;14.29074500;2023-12-04T02:36:26;14.30;20.70
6556;DHT22;3311;48.32423000;14.29074500;2023-12-04T02:38:56;14.30;20.50
6556;DHT22;3311;48.32423000;14.29074500;2023-12-04T02:41:25;14.30;20.90
6556;DHT22;3311;48.32423000;14.29074500;2023-12-04T02:43:52;14.40;21.00
6556;DHT22;3311;48.32423000;14.29074500;2023-12-04T02:46:20;14.40;20.90
6556;DHT22;3311;48.32423000;14.29074500;2023-12-04T02:48:48;14.30;21.00
6556;DHT22;3311;48.32423000;14.29074500;2023-12-04T02:51:15;14.30;21.10
6556;DHT22;3311;48.32423000;14.29074500;2023-12-04T02:53:43;14.10;21.20
6556;DHT22;3311;48.32423000;14.29074500;2023-12-04T02:56:12;14.00;21.30
6556;DHT22;3311;48.32423000;14.29074500;2023-12-04T02:58:38;13.90;21.30
6556;DHT22;3311;48.32423000;14.29074500;2023-12-04T03:01:06;13.90;21.30
6556;DHT22;3311;48.32423000;14.29074500;2023-12-04T03:03:33;14.00;21.30
6556;DHT22;3311;48.32423000;14.29074500;2023-12-04T03:06:01;14.10;21.30
6556;DHT22;3311;48.32423000;14.29074500;2023-12-04T03:08:28;14.10;21.30
6556;DHT22;3311;48.32423000;14.29074500;2023-12-04T03:10:55;14.20;21.30
6556;DHT22;3311;48.32423000;14.29074500;2023-12-04T03:13:24;14.10;21.10
6556;DHT22;3311;48.32423000;14.29074500;2023-12-04T03:15:51;14.20;21.10
6556;DHT22;3311;48.32423000;14.29074500;2023-12-04T03:18:18;14.20;21.10
6556;DHT22;3311;48.32423000;14.29074500;2023-12-04T03:20:45;14.40;21.00
6556;DHT22;3311;48.32423000;14.29074500;2023-12-04T03:23:12;14.40;20.70
6556;DHT22;3311;48.32423000;14.29074500;2023-12-04T03:25:40;14.40;21.00
6556;DHT22;3311;48.32423000;14.29074500;2023-12-04T03:28:07;14.40;21.00
6556;DHT22;3311;48.32423000;14.29074500;2023-12-04T03:30:35;14.30;21.00
6556;DHT22;3311;48.32423000;14.29074500;2023-12-04T03:33:03;14.10;20.90
6556;DHT22;3311;48.32423000;14.29074500;2023-12-04T03:35:30;13.90;20.90
6556;DHT22;3311;48.32423000;14.29074500;2023-12-04T03:37:57;13.70;21.20
6556;DHT22;3311;48.32423000;14.29074500;2023-12-04T03:40:24;13.00;21.70
6556;DHT22;3311;48.32423000;14.29074500;2023-12-04T03:42:52;12.90;22.40
6556;DHT22;3311;48.32423000;14.29074500;2023-12-04T03:45:19;12.60;22.20
6556;DHT22;3311;48.32423000;14.29074500;2023-12-04T03:47:48;12.70;22.70
6556;DHT22;3311;48.32423000;14.29074500;2023-12-04T03:50:15;13.10;22.70
6556;DHT22;3311;48.32423000;14.29074500;2023-12-04T03:52:43;13.20;22.20
6556;DHT22;3311;48.32423000;14.29074500;2023-12-04T03:55:10;13.10;22.20
6556;DHT22;3311;48.32423000;14.29074500;2023-12-04T03:57:37;13.10;22.30
6556;DHT22;3311;48.32423000;14.29074500;2023-12-04T04:00:06;13.60;22.30
6556;DHT22;3311;48.32423000;14.29074500;2023-12-04T04:02:36;13.90;21.90
6556;DHT22;3311;48.32423000;14.29074500;2023-12-04T04:05:05;14.40;21.60
6556;DHT22;3311;48.32423000;14.29074500;2023-12-04T04:07:32;14.50;21.30
6556;DHT22;3311;48.32423000;14.29074500;2023-12-04T04:10:00;14.30;21.20
6556;DHT22;3311;48.32423000;14.29074500;2023-12-04T04:12:28;13.80;21.20
6556;DHT22;3311;48.32423000;14.29074500;2023-12-04T04:14:55;13.60;21.60
6556;DHT22;3311;48.32423000;14.29074500;2023-12-04T04:17:23;14.30;20.90
6556;DHT22;3311;48.32423000;14.29074500;2023-12-04T04:19:52;14.20;21.20
6556;DHT22;3311;48.32423000;14.29074500;2023-12-04T04:22:21;14.40;21.30
6556;DHT22;3311;48.32423000;14.29074500;2023-12-04T04:24:49;14.40;21.10
6556;DHT22;3311;48.32423000;14.29074500;2023-12-04T04:27:17;14.30;21.00
6556;DHT22;3311;48.32423000;14.29074500;2023-12-04T04:29:44;14.30;21.00
6556;DHT22;3311;48.32423000;14.29074500;2023-12-04T04:32:12;14.20;20.90
6556;DHT22;3311;48.32423000;14.29074500;2023-12-04T04:34:39;14.50;20.90
6556;DHT22;3311;48.32423000;14.29074500;2023-12-04T04:37:06;14.60;20.80
6556;DHT22;3311;48.32423000;14.29074500;2023-12-04T04:39:35;14.60;20.60
6556;DHT22;3311;48.32423000;14.29074500;2023-12-04T04:42:03;14.60;20.50
6556;DHT22;3311;48.32423000;14.29074500;2023-12-04T04:44:31;13.70;20.10
6556;DHT22;3311;48.32423000;14.29074500;2023-12-04T04:46:58;14.10;20.60
6556;DHT22;3311;48.32423000;14.29074500;2023-12-04T04:49:26;14.20;20.30
6556;DHT22;3311;48.32423000;14.29074500;2023-12-04T04:51:53;14.30;20.20
6556;DHT22;3311;48.32423000;14.29074500;2023-12-04T04:54:20;14.30;20.10
6556;DHT22;3311;48.32423000;14.29074500;2023-12-04T04:56:49;14.00;20.00
6556;DHT22;3311;48.32423000;14.29074500;2023-12-04T04:59:17;13.90;20.10
6556;DHT22;3311;48.32423000;14.29074500;2023-12-04T05:01:44;13.80;20.40
6556;DHT22;3311;48.32423000;14.29074500;2023-12-04T05:04:11;13.70;20.30
6556;DHT22;3311;48.32423000;14.29074500;2023-12-04T05:06:39;13.80;20.20
6556;DHT22;3311;48.32423000;14.29074500;2023-12-04T05:09:06;13.20;20.20
6556;DHT22;3311;48.32423000;14.29074500;2023-12-04T05:11:34;13.90;20.20
6556;DHT22;3311;48.32423000;14.29074500;2023-12-04T05:14:02;14.20;19.80
6556;DHT22;3311;48.32423000;14.29074500;2023-12-04T05:16:30;14.30;19.70
6556;DHT22;3311;48.32423000;14.29074500;2023-12-04T05:18:57;14.40;19.50
6556;DHT22;3311;48.32423000;14.29074500;2023-12-04T05:21:25;14.40;19.40
6556;DHT22;3311;48.32423000;14.29074500;2023-12-04T05:23:52;14.50;19.40
6556;DHT22;3311;48.32423000;14.29074500;2023-12-04T05:26:20;14.50;19.40
6556;DHT22;3311;48.32423000;14.29074500;2023-12-04T05:28:47;14.60;19.40
6556;DHT22;3311;48.32423000;14.29074500;2023-12-04T05:31:16;14.70;19.20
6556;DHT22;3311;48.32423000;14.29074500;2023-12-04T05:33:43;14.60;19.10
6556;DHT22;3311;48.32423000;14.29074500;2023-12-04T05:36:11;14.60;19.10
6556;DHT22;3311;48.32423000;14.29074500;2023-12-04T05:38:39;14.60;19.00
6556;DHT22;3311;48.32423000;14.29074500;2023-12-04T05:41:06;14.40;18.90
6556;DHT22;3311;48.32423000;14.29074500;2023-12-04T05:43:34;14.30;19.00
6556;DHT22;3311;48.32423000;14.29074500;2023-12-04T05:46:01;14.20;19.00
6556;DHT22;3311;48.32423000;14.29074500;2023-12-04T05:48:30;13.90;19.10
6556;DHT22;3311;48.32423000;14.29074500;2023-12-04T05:50:57;14.30;19.10
6556;DHT22;3311;48.32423000;14.29074500;2023-12-04T05:53:25;14.20;18.80
6556;DHT22;3311;48.32423000;14.29074500;2023-12-04T05:55:52;14.10;19.00
6556;DHT22;3311;48.32423000;14.29074500;2023-12-04T05:58:19;14.30;19.10
6556;DHT22;3311;48.32423000;14.29074500;2023-12-04T06:00:47;14.40;19.00
6556;DHT22;3311;48.32423000;14.29074500;2023-12-04T06:03:14;14.50;18.70
6556;DHT22;3311;48.32423000;14.29074500;2023-12-04T06:05:43;14.50;19.00
6556;DHT22;3311;48.32423000;14.29074500;2023-12-04T06:08:10;14.50;19.10
6556;DHT22;3311;48.32423000;14.29074500;2023-12-04T06:10:38;14.60;19.40
6556;DHT22;3311;48.32423000;14.29074500;2023-12-04T06:13:05;14.60;19.50
6556;DHT22;3311;48.32423000;14.29074500;2023-12-04T06:15:32;14.50;19.70
6556;DHT22;3311;48.32423000;14.29074500;2023-12-04T06:18:00;14.30;19.80
6556;DHT22;3311;48.32423000;14.29074500;2023-12-04T06:20:27;14.20;20.00
6556;DHT22;3311;48.32423000;14.29074500;2023-12-04T06:22:57;14.10;20.00
6556;DHT22;3311;48.32423000;14.29074500;2023-12-04T06:25:25;14.00;20.20
6556;DHT22;3311;48.32423000;14.29074500;2023-12-04T06:27:53;13.90;20.30
6556;DHT22;3311;48.32423000;14.29074500;2023-12-04T06:30:22;13.90;20.30
6556;DHT22;3311;48.32423000;14.29074500;2023-12-04T06:32:51;13.90;20.30
6556;DHT22;3311;48.32423000;14.29074500;2023-12-04T06:35:19;14.00;20.20
6556;DHT22;3311;48.32423000;14.29074500;2023-12-04T06:37:48;14.00;19.90
6556;DHT22;3311;48.32423000;14.29074500;2023-12-04T06:40:19;14.00;19.70
6556;DHT22;3311;48.32423000;14.29074500;2023-12-04T06:42:47;14.10;19.60
6556;DHT22;3311;48.32423000;14.29074500;2023-12-04T06:45:16;14.40;19.50
6556;DHT22;3311;48.32423000;14.29074500;2023-12-04T06:47:46;14.40;19.30
6556;DHT22;3311;48.32423000;14.29074500;2023-12-04T06:50:17;14.50;19.20
6556;DHT22;3311;48.32423000;14.29074500;2023-12-04T06:52:44;14.50;19.00
6556;DHT22;3311;48.32423000;14.29074500;2023-12-04T06:55:12;14.50;19.50
6556;DHT22;3311;48.32423000;14.29074500;2023-12-04T06:57:41;14.40;19.00
6556;DHT22;3311;48.32423000;14.29074500;2023-12-04T07:00:10;14.20;18.90
6556;DHT22;3311;48.32423000;14.29074500;2023-12-04T07:02:40;14.10;19.00
6556;DHT22;3311;48.32423000;14.29074500;2023-12-04T07:05:08;14.00;19.10
6556;DHT22;3311;48.32423000;14.29074500;2023-12-04T07:07:35;13.70;19.10
6556;DHT22;3311;48.32423000;14.29074500;2023-12-04T07:10:03;13.60;19.20
6556;DHT22;3311;48.32423000;14.29074500;2023-12-04T07:12:30;13.60;19.20
6556;DHT22;3311;48.32423000;14.29074500;2023-12-04T07:14:59;13.60;19.20
6556;DHT22;3311;48.32423000;14.29074500;2023-12-04T07:17:27;13.70;19.40
6556;DHT22;3311;48.32423000;14.29074500;2023-12-04T07:19:55;13.80;19.20
6556;DHT22;3311;48.32423000;14.29074500;2023-12-04T07:22:22;13.90;19.40
6556;DHT22;3311;48.32423000;14.29074500;2023-12-04T07:24:50;13.80;19.40
6556;DHT22;3311;48.32423000;14.29074500;2023-12-04T07:27:17;13.70;19.30
6556;DHT22;3311;48.32423000;14.29074500;2023-12-04T07:29:45;13.60;19.40
6556;DHT22;3311;48.32423000;14.29074500;2023-12-04T07:32:14;13.40;19.60
6556;DHT22;3311;48.32423000;14.29074500;2023-12-04T07:34:41;13.60;19.90
6556;DHT22;3311;48.32423000;14.29074500;2023-12-04T07:37:09;13.90;20.40
6556;DHT22;3311;48.32423000;14.29074500;2023-12-04T07:39:36;14.00;20.00
6556;DHT22;3311;48.32423000;14.29074500;2023-12-04T07:42:04;14.00;20.40
6556;DHT22;3311;48.32423000;14.29074500;2023-12-04T07:44:31;14.00;20.70
6556;DHT22;3311;48.32423000;14.29074500;2023-12-04T07:46:59;14.10;20.80
6556;DHT22;3311;48.32423000;14.29074500;2023-12-04T07:49:28;14.10;21.20
6556;DHT22;3311;48.32423000;14.29074500;2023-12-04T07:51:55;13.90;21.50
6556;DHT22;3311;48.32423000;14.29074500;2023-12-04T07:54:23;13.50;21.60
6556;DHT22;3311;48.32423000;14.29074500;2023-12-04T07:56:53;12.90;21.80
6556;DHT22;3311;48.32423000;14.29074500;2023-12-04T07:59:20;12.20;22.70
6556;DHT22;3311;48.32423000;14.29074500;2023-12-04T08:01:48;11.50;23.50
6556;DHT22;3311;48.32423000;14.29074500;2023-12-04T08:04:15;11.00;24.40
6556;DHT22;3311;48.32423000;14.29074500;2023-12-04T08:06:44;10.30;25.50
6556;DHT22;3311;48.32423000;14.29074500;2023-12-04T08:09:10;9.90;26.90
6556;DHT22;3311;48.32423000;14.29074500;2023-12-04T08:11:38;9.20;27.70
6556;DHT22;3311;48.32423000;14.29074500;2023-12-04T08:14:06;8.60;28.80
6556;DHT22;3311;48.32423000;14.29074500;2023-12-04T08:16:34;8.10;29.60
6556;DHT22;3311;48.32423000;14.29074500;2023-12-04T08:19:01;7.70;30.10
6556;DHT22;3311;48.32423000;14.29074500;2023-12-04T08:21:29;7.50;31.10
6556;DHT22;3311;48.32423000;14.29074500;2023-12-04T08:23:59;7.40;31.70
6556;DHT22;3311;48.32423000;14.29074500;2023-12-04T08:26:26;7.20;32.40
6556;DHT22;3311;48.32423000;14.29074500;2023-12-04T08:28:54;7.10;32.70
6556;DHT22;3311;48.32423000;14.29074500;2023-12-04T08:31:22;7.60;32.50
6556;DHT22;3311;48.32423000;14.29074500;2023-12-04T08:33:50;8.00;31.60
6556;DHT22;3311;48.32423000;14.29074500;2023-12-04T08:36:17;8.60;31.10
6556;DHT22;3311;48.32423000;14.29074500;2023-12-04T08:38:45;9.10;30.00
6556;DHT22;3311;48.32423000;14.29074500;2023-12-04T08:41:14;9.40;29.70
6556;DHT22;3311;48.32423000;14.29074500;2023-12-04T08:43:42;9.50;29.40
6556;DHT22;3311;48.32423000;14.29074500;2023-12-04T08:46:12;9.90;29.00
6556;DHT22;3311;48.32423000;14.29074500;2023-12-04T08:48:40;9.90;28.90
6556;DHT22;3311;48.32423000;14.29074500;2023-12-04T08:51:14;10.10;28.00
6556;DHT22;3311;48.32423000;14.29074500;2023-12-04T08:53:41;10.20;28.00
6556;DHT22;3311;48.32423000;14.29074500;2023-12-04T08:56:10;9.70;28.50
6556;DHT22;3311;48.32423000;14.29074500;2023-12-04T08:58:39;8.60;29.60
6556;DHT22;3311;48.32423000;14.29074500;2023-12-04T09:01:07;8.70;30.20
6556;DHT22;3311;48.32423000;14.29074500;2023-12-04T09:03:34;8.40;30.40
6556;DHT22;3311;48.32423000;14.29074500;2023-12-04T09:06:03;8.50;30.80
6556;DHT22;3311;48.32423000;14.29074500;2023-12-04T09:08:31;8.40;30.80
6556;DHT22;3311;48.32423000;14.29074500;2023-12-04T09:10:58;8.00;30.80
6556;DHT22;3311;48.32423000;14.29074500;2023-12-04T09:13:26;7.80;31.60
6556;DHT22;3311;48.32423000;14.29074500;2023-12-04T09:15:56;7.70;31.90
6556;DHT22;3311;48.32423000;14.29074500;2023-12-04T09:18:23;7.50;32.40
6556;DHT22;3311;48.32423000;14.29074500;2023-12-04T09:20:51;7.20;32.60
6556;DHT22;3311;48.32423000;14.29074500;2023-12-04T09:23:18;7.10;33.20
6556;DHT22;3311;48.32423000;14.29074500;2023-12-04T09:25:45;7.10;33.70
6556;DHT22;3311;48.32423000;14.29074500;2023-12-04T09:28:13;7.00;33.60
6556;DHT22;3311;48.32423000;14.29074500;2023-12-04T09:30:40;6.60;34.30
6556;DHT22;3311;48.32423000;14.29074500;2023-12-04T09:33:09;6.60;34.10
6556;DHT22;3311;48.32423000;14.29074500;2023-12-04T09:35:39;6.60;34.60
6556;DHT22;3311;48.32423000;14.29074500;2023-12-04T09:38:06;6.70;34.70
6556;DHT22;3311;48.32423000;14.29074500;2023-12-04T09:40:33;6.40;34.80
6556;DHT22;3311;48.32423000;14.29074500;2023-12-04T09:43:01;6.30;35.20
6556;DHT22;3311;48.32423000;14.29074500;2023-12-04T09:45:29;6.20;35.60
6556;DHT22;3311;48.32423000;14.29074500;2023-12-04T09:47:59;6.40;35.60
6556;DHT22;3311;48.32423000;14.29074500;2023-12-04T09:50:28;6.70;35.30
6556;DHT22;3311;48.32423000;14.29074500;2023-12-04T09:53:00;6.90;34.80
6556;DHT22;3311;48.32423000;14.29074500;2023-12-04T09:55:28;6.80;34.60
6556;DHT22;3311;48.32423000;14.29074500;2023-12-04T09:57:57;6.90;34.70
6556;DHT22;3311;48.32423000;14.29074500;2023-12-04T10:00:24;7.00;34.70
6556;DHT22;3311;48.32423000;14.29074500;2023-12-04T10:02:52;6.70;34.80
6556;DHT22;3311;48.32423000;14.29074500;2023-12-04T10:05:20;6.70;35.30
6556;DHT22;3311;48.32423000;14.29074500;2023-12-04T10:07:49;7.60;35.20
6556;DHT22;3311;48.32423000;14.29074500;2023-12-04T10:10:17;8.80;33.20
6556;DHT22;3311;48.32423000;14.29074500;2023-12-04T10:12:45;9.20;31.60
6556;DHT22;3311;48.32423000;14.29074500;2023-12-04T10:15:13;9.60;31.10
6556;DHT22;3311;48.32423000;14.29074500;2023-12-04T10:17:41;10.00;29.50
6556;DHT22;3311;48.32423000;14.29074500;2023-12-04T10:20:11;9.70;30.00
6556;DHT22;3311;48.32423000;14.29074500;2023-12-04T10:22:54;9.50;30.40
6556;DHT22;3311;48.32423000;14.29074500;2023-12-04T10:25:22;8.40;31.40
6556;DHT22;3311;48.32423000;14.29074500;2023-12-04T10:27:51;8.30;31.90
6556;DHT22;3311;48.32423000;14.29074500;2023-12-04T10:30:24;8.20;32.80
6556;DHT22;3311;48.32423000;14.29074500;2023-12-04T10:32:55;8.00;33.30
6556;DHT22;3311;48.32423000;14.29074500;2023-12-04T10:35:28;8.00;33.70
6556;DHT22;3311;48.32423000;14.29074500;2023-12-04T10:37:58;7.70;34.10
6556;DHT22;3311;48.32423000;14.29074500;2023-12-04T10:40:31;7.10;34.80
6556;DHT22;3311;48.32423000;14.29074500;2023-12-04T10:43:15;6.70;35.80
6556;DHT22;3311;48.32423000;14.29074500;2023-12-04T10:45:44;6.70;36.60
6556;DHT22;3311;48.32423000;14.29074500;2023-12-04T10:48:13;7.00;36.30
6556;DHT22;3311;48.32423000;14.29074500;2023-12-04T10:50:42;6.90;36.20
6556;DHT22;3311;48.32423000;14.29074500;2023-12-04T10:53:12;6.90;36.50
6556;DHT22;3311;48.32423000;14.29074500;2023-12-04T10:55:41;6.80;36.70
6556;DHT22;3311;48.32423000;14.29074500;2023-12-04T10:58:09;6.90;36.60
6556;DHT22;3311;48.32423000;14.29074500;2023-12-04T11:00:39;6.90;36.40
6556;DHT22;3311;48.32423000;14.29074500;2023-12-04T11:03:09;6.90;36.30
6556;DHT22;3311;48.32423000;14.29074500;2023-12-04T11:05:39;6.50;36.60
6556;DHT22;3311;48.32423000;14.29074500;2023-12-04T11:08:11;6.30;37.40
6556;DHT22;3311;48.32423000;14.29074500;2023-12-04T11:10:45;6.20;37.80
6556;DHT22;3311;48.32423000;14.29074500;2023-12-04T11:13:17;6.30;38.20
6556;DHT22;3311;48.32423000;14.29074500;2023-12-04T11:15:47;6.30;38.40
6556;DHT22;3311;48.32423000;14.29074500;2023-12-04T11:18:16;6.50;38.80
6556;DHT22;3311;48.32423000;14.29074500;2023-12-04T11:20:53;7.10;38.00
6556;DHT22;3311;48.32423000;14.29074500;2023-12-04T11:23:23;7.70;36.90
6556;DHT22;3311;48.32423000;14.29074500;2023-12-04T11:25:52;8.40;35.70
6556;DHT22;3311;48.32423000;14.29074500;2023-12-04T11:28:21;9.20;34.20
6556;DHT22;3311;48.32423000;14.29074500;2023-12-04T11:30:49;9.60;33.10
6556;DHT22;3311;48.32423000;14.29074500;2023-12-04T11:33:18;9.30;33.00
6556;DHT22;3311;48.32423000;14.29074500;2023-12-04T11:35:45;8.70;33.30
6556;DHT22;3311;48.32423000;14.29074500;2023-12-04T11:38:13;8.40;34.50
6556;DHT22;3311;48.32423000;14.29074500;2023-12-04T11:40:43;8.40;34.80
6556;DHT22;3311;48.32423000;14.29074500;2023-12-04T11:43:25;8.10;35.20
6556;DHT22;3311;48.32423000;14.29074500;2023-12-04T11:45:53;8.00;35.30
6556;DHT22;3311;48.32423000;14.29074500;2023-12-04T11:48:24;7.50;35.80
6556;DHT22;3311;48.32423000;14.29074500;2023-12-04T11:50:52;7.30;36.80
6556;DHT22;3311;48.32423000;14.29074500;2023-12-04T11:53:19;7.00;37.20
6556;DHT22;3311;48.32423000;14.29074500;2023-12-04T11:55:49;7.00;37.70
6556;DHT22;3311;48.32423000;14.29074500;2023-12-04T11:58:17;7.10;37.70
6556;DHT22;3311;48.32423000;14.29074500;2023-12-04T12:00:44;7.00;37.00
6556;DHT22;3311;48.32423000;14.29074500;2023-12-04T12:03:15;7.00;37.70
6556;DHT22;3311;48.32423000;14.29074500;2023-12-04T12:05:42;6.80;37.20
6556;DHT22;3311;48.32423000;14.29074500;2023-12-04T12:08:10;6.90;37.90
6556;DHT22;3311;48.32423000;14.29074500;2023-12-04T12:10:37;7.00;37.80
6556;DHT22;3311;48.32423000;14.29074500;2023-12-04T12:13:06;6.90;37.70
6556;DHT22;3311;48.32423000;14.29074500;2023-12-04T12:15:34;6.60;38.20
6556;DHT22;3311;48.32423000;14.29074500;2023-12-04T12:18:06;6.60;38.60
6556;DHT22;3311;48.32423000;14.29074500;2023-12-04T12:20:36;6.40;38.90
6556;DHT22;3311;48.32423000;14.29074500;2023-12-04T12:23:03;6.30;39.30
6556;DHT22;3311;48.32423000;14.29074500;2023-12-04T12:25:31;6.30;39.50
6556;DHT22;3311;48.32423000;14.29074500;2023-12-04T12:28:02;6.30;39.30
6556;DHT22;3311;48.32423000;14.29074500;2023-12-04T12:30:31;6.30;39.80
6556;DHT22;3311;48.32423000;14.29074500;2023-12-04T12:32:59;6.20;40.00
6556;DHT22;3311;48.32423000;14.29074500;2023-12-04T12:35:26;6.10;40.50
6556;DHT22;3311;48.32423000;14.29074500;2023-12-04T12:37:53;6.10;40.90
6556;DHT22;3311;48.32423000;14.29074500;2023-12-04T12:40:22;6.00;41.10
6556;DHT22;3311;48.32423000;14.29074500;2023-12-04T12:42:50;6.00;41.10
6556;DHT22;3311;48.32423000;14.29074500;2023-12-04T12:45:17;6.20;41.20
6556;DHT22;3311;48.32423000;14.29074500;2023-12-04T12:47:46;6.40;41.00
6556;DHT22;3311;48.32423000;14.29074500;2023-12-04T12:50:14;6.50;40.50
6556;DHT22;3311;48.32423000;14.29074500;2023-12-04T12:52:43;6.50;40.40
6556;DHT22;3311;48.32423000;14.29074500;2023-12-04T12:57:39;6.60;40.30
6556;DHT22;3311;48.32423000;14.29074500;2023-12-04T13:00:08;6.70;40.40
6556;DHT22;3311;48.32423000;14.29074500;2023-12-04T13:02:37;7.00;39.70
6556;DHT22;3311;48.32423000;14.29074500;2023-12-04T13:05:07;6.90;40.00
6556;DHT22;3311;48.32423000;14.29074500;2023-12-04T13:07:34;7.00;40.00
6556;DHT22;3311;48.32423000;14.29074500;2023-12-04T13:10:04;7.10;39.80
6556;DHT22;3311;48.32423000;14.29074500;2023-12-04T13:12:33;7.10;39.70
6556;DHT22;3311;48.32423000;14.29074500;2023-12-04T13:15:01;7.10;39.70
6556;DHT22;3311;48.32423000;14.29074500;2023-12-04T13:17:31;7.20;39.20
6556;DHT22;3311;48.32423000;14.29074500;2023-12-04T13:19:58;7.10;39.70
6556;DHT22;3311;48.32423000;14.29074500;2023-12-04T13:22:27;7.20;39.70
6556;DHT22;3311;48.32423000;14.29074500;2023-12-04T13:24:54;7.20;39.60
6556;DHT22;3311;48.32423000;14.29074500;2023-12-04T13:27:22;7.10;39.80
6556;DHT22;3311;48.32423000;14.29074500;2023-12-04T13:29:49;6.90;40.00
6556;DHT22;3311;48.32423000;14.29074500;2023-12-04T13:32:16;6.80;40.20
6556;DHT22;3311;48.32423000;14.29074500;2023-12-04T13:34:47;6.80;40.70
6556;DHT22;3311;48.32423000;14.29074500;2023-12-04T13:37:14;6.70;41.00
6556;DHT22;3311;48.32423000;14.29074500;2023-12-04T13:39:45;6.70;41.10
6556;DHT22;3311;48.32423000;14.29074500;2023-12-04T13:42:17;6.70;41.10
6556;DHT22;3311;48.32423000;14.29074500;2023-12-04T13:45:02;6.80;41.00
6556;DHT22;3311;48.32423000;14.29074500;2023-12-04T13:47:30;6.70;41.00